createdAt,value
2018-09-10T00:01:46.137Z,1013.00
2018-09-10T00:06:41.945Z,1012.99
2018-09-10T00:11:37.811Z,1013.01
2018-09-10T00:16:33.614Z,1013.05
2018-09-10T00:21:29.605Z,1013.07
2018-09-10T00:26:26.207Z,1013.13
2018-09-10T00:31:22.298Z,1013.12
2018-09-10T00:36:18.103Z,1013.04
2018-09-10T00:41:14.021Z,1013.03
2018-09-10T00:46:10.605Z,1012.97
2018-09-10T00:51:06.536Z,1013.05
2018-09-10T00:56:02.118Z,1013.02
2018-09-10T01:00:58.151Z,1013.08
2018-09-10T01:05:54.049Z,1012.96
2018-09-10T01:10:50.700Z,1013.00
2018-09-10T01:15:46.494Z,1013.04
2018-09-10T01:20:42.519Z,1013.10
2018-09-10T01:25:39.334Z,1012.89
2018-09-10T01:30:34.930Z,1012.97
2018-09-10T01:35:30.930Z,1012.95
2018-09-10T01:40:26.639Z,1012.80
2018-09-10T01:45:23.595Z,1012.83
2018-09-10T01:50:18.920Z,1012.82
2018-09-10T01:55:15.204Z,1012.87
2018-09-10T02:00:11.816Z,1012.86
2018-09-10T02:05:08.687Z,1013.00
2018-09-10T02:10:04.442Z,1013.05
2018-09-10T02:15:00.470Z,1013.01
2018-09-10T02:19:55.973Z,1013.01
2018-09-10T02:24:51.966Z,1012.92
2018-09-10T02:29:47.768Z,1012.91
2018-09-10T02:34:43.878Z,1012.86
2018-09-10T02:39:41.266Z,1012.86
2018-09-10T02:44:37.847Z,1012.83
2018-09-10T02:49:33.606Z,1012.84
2018-09-10T02:54:29.180Z,1012.80
2018-09-10T02:59:24.981Z,1012.87
2018-09-10T03:04:20.791Z,1012.91
2018-09-10T03:09:16.743Z,1012.84
2018-09-10T03:14:12.748Z,1012.94
2018-09-10T03:19:08.735Z,1012.92
2018-09-10T03:24:04.979Z,1012.90
2018-09-10T03:29:01.598Z,1012.98
2018-09-10T03:33:58.189Z,1012.98
2018-09-10T03:38:53.810Z,1013.08
2018-09-10T03:43:51.169Z,1013.05
2018-09-10T03:48:46.742Z,1013.09
2018-09-10T03:53:42.573Z,1013.22
2018-09-10T03:58:38.264Z,1013.33
2018-09-10T04:03:34.554Z,1013.40
2018-09-10T04:08:30.951Z,1013.40
2018-09-10T04:13:27.138Z,1013.31
2018-09-10T04:18:23.510Z,1013.21
2018-09-10T04:23:20.242Z,1013.10
2018-09-10T04:28:15.422Z,1013.25
2018-09-10T04:33:11.083Z,1013.27
2018-09-10T04:38:08.623Z,1013.23
2018-09-10T04:43:04.470Z,1013.27
2018-09-10T04:48:00.389Z,1013.42
2018-09-10T04:52:56.245Z,1013.44
2018-09-10T04:57:52.031Z,1013.50
2018-09-10T05:02:47.615Z,1013.53
2018-09-10T05:07:43.456Z,1013.46
2018-09-10T05:12:39.332Z,1013.47
2018-09-10T05:17:35.122Z,1013.57
2018-09-10T05:22:31.170Z,1013.55
2018-09-10T05:27:26.943Z,1013.64
2018-09-10T05:32:22.561Z,1013.68
2018-09-10T05:37:18.123Z,1013.70
2018-09-10T05:42:13.757Z,1013.75
2018-09-10T05:47:09.532Z,1013.77
2018-09-10T05:52:06.375Z,1013.90
2018-09-10T05:57:01.912Z,1013.88
2018-09-10T06:01:58.918Z,1014.04
2018-09-10T06:06:55.490Z,1014.15
2018-09-10T06:11:52.162Z,1014.27
2018-09-10T06:16:48.060Z,1014.19
2018-09-10T06:21:44.278Z,1014.32
2018-09-10T06:26:40.041Z,1014.20
2018-09-10T06:31:36.427Z,1014.10
2018-09-10T06:36:32.889Z,1014.12
2018-09-10T06:41:28.764Z,1014.12
2018-09-10T06:46:25.105Z,1014.06
2018-09-10T06:51:20.994Z,1013.99
2018-09-10T06:56:16.782Z,1014.15
2018-09-10T07:01:13.357Z,1014.10
2018-09-10T07:06:09.294Z,1014.13
2018-09-10T07:11:06.096Z,1014.43
2018-09-10T07:16:01.655Z,1014.27
2018-09-10T07:20:57.421Z,1014.38
2018-09-10T07:25:53.367Z,1014.25
2018-09-10T07:30:49.669Z,1014.47
2018-09-10T07:35:46.162Z,1014.48
2018-09-10T07:40:42.320Z,1014.47
2018-09-10T07:45:38.597Z,1014.26
2018-09-10T07:50:34.388Z,1014.25
2018-09-10T07:55:31.215Z,1014.38
2018-09-10T08:00:26.725Z,1014.46
2018-09-10T08:05:22.272Z,1014.43
2018-09-10T08:10:17.779Z,1014.48
2018-09-10T08:15:14.138Z,1014.42
2018-09-10T08:20:11.349Z,1014.67
2018-09-10T08:25:07.002Z,1014.74
2018-09-10T08:30:04.408Z,1014.70
2018-09-10T08:35:00.270Z,1014.78
2018-09-10T08:39:56.245Z,1014.83
2018-09-10T08:44:52.762Z,1014.79
2018-09-10T08:49:48.920Z,1014.75
2018-09-10T08:54:45.851Z,1014.68
2018-09-10T08:59:41.981Z,1014.88
2018-09-10T09:04:39.013Z,1014.90
2018-09-10T09:09:34.945Z,1014.91
2018-09-10T09:14:32.017Z,1014.85
2018-09-10T09:19:28.256Z,1014.86
2018-09-10T09:24:25.344Z,1015.02
2018-09-10T09:29:21.281Z,1015.09
2018-09-10T09:34:17.627Z,1015.04
2018-09-10T09:39:13.696Z,1015.13
2018-09-10T09:44:10.220Z,1015.01
2018-09-10T09:49:07.175Z,1015.12
2018-09-10T09:54:04.236Z,1015.17
2018-09-10T09:58:59.474Z,1015.16
2018-09-10T10:03:55.343Z,1015.10
2018-09-10T10:08:52.639Z,1015.05
2018-09-10T10:13:48.503Z,1015.00
2018-09-10T10:18:44.547Z,1014.92
2018-09-10T10:23:40.228Z,1015.26
2018-09-10T10:28:36.385Z,1015.11
2018-09-10T10:33:33.350Z,1015.07
2018-09-10T10:38:28.761Z,1015.15
2018-09-10T10:43:24.640Z,1014.90
2018-09-10T10:48:20.599Z,1015.00
2018-09-10T10:53:17.632Z,1014.87
2018-09-10T10:58:13.253Z,1015.06
2018-09-10T11:03:09.141Z,1015.10
2018-09-10T11:08:04.972Z,1015.05
2018-09-10T11:13:00.944Z,1015.08
2018-09-10T11:17:57.105Z,1014.97
2018-09-10T11:22:53.458Z,1014.93
2018-09-10T11:27:49.872Z,1015.09
2018-09-10T11:32:45.868Z,1015.10
2018-09-10T11:37:41.846Z,1015.07
2018-09-10T11:42:37.888Z,1015.00
2018-09-10T11:47:34.668Z,1014.97
2018-09-10T11:52:30.496Z,1015.03
2018-09-10T11:57:26.393Z,1015.01
2018-09-10T12:02:23.174Z,1014.98
2018-09-10T12:07:19.090Z,1015.12
2018-09-10T12:12:15.173Z,1015.05
2018-09-10T12:17:10.830Z,1015.16
2018-09-10T12:22:06.583Z,1015.15
2018-09-10T12:27:02.404Z,1015.34
2018-09-10T12:31:58.335Z,1015.41
2018-09-10T12:36:54.278Z,1015.47
2018-09-10T12:41:51.991Z,1015.40
2018-09-10T12:46:47.894Z,1015.61
2018-09-10T12:51:43.816Z,1015.56
2018-09-10T12:56:40.122Z,1015.53
2018-09-10T13:01:36.215Z,1015.43
2018-09-10T13:06:33.031Z,1015.13
2018-09-10T13:11:28.997Z,1015.14
2018-09-10T13:16:24.792Z,1015.03
2018-09-10T13:21:22.132Z,1015.12
2018-09-10T13:26:18.444Z,1015.23
2018-09-10T13:31:14.729Z,1014.98
2018-09-10T13:36:11.615Z,1014.95
2018-09-10T13:41:07.407Z,1015.08
2018-09-10T13:46:03.512Z,1015.17
2018-09-10T13:50:59.092Z,1015.18
2018-09-10T13:55:55.414Z,1015.26
2018-09-10T14:00:52.445Z,1015.22
2018-09-10T14:05:49.234Z,1015.18
2018-09-10T14:10:44.794Z,1015.15
2018-09-10T14:15:41.705Z,1015.26
2018-09-10T14:20:38.610Z,1015.23
2018-09-10T14:25:35.315Z,1015.22
2018-09-10T14:30:31.917Z,1015.17
2018-09-10T14:35:28.393Z,1015.21
2018-09-10T14:40:23.957Z,1015.31
2018-09-10T14:45:19.685Z,1015.32
2018-09-10T14:50:16.510Z,1015.38
2018-09-10T14:55:13.101Z,1015.60
2018-09-10T15:00:09.218Z,1015.57
2018-09-10T15:05:05.442Z,1015.65
2018-09-10T15:10:01.413Z,1015.51
2018-09-10T15:14:57.472Z,1015.49
2018-09-10T15:19:53.380Z,1015.64
2018-09-10T15:24:49.565Z,1015.91
2018-09-10T15:29:45.338Z,1015.87
2018-09-10T15:34:41.459Z,1015.79
2018-09-10T15:39:37.833Z,1015.68
2018-09-10T15:44:33.753Z,1015.60
2018-09-10T15:49:30.030Z,1015.56
2018-09-10T15:54:25.879Z,1015.46
2018-09-10T15:59:22.894Z,1015.25
2018-09-10T16:04:19.459Z,1015.35
2018-09-10T16:09:14.953Z,1015.55
2018-09-10T16:14:10.836Z,1015.41
2018-09-10T16:19:07.652Z,1015.27
2018-09-10T16:24:04.566Z,1015.29
2018-09-10T16:29:00.482Z,1015.27
2018-09-10T16:33:56.545Z,1015.34
2018-09-10T16:38:52.879Z,1015.25
2018-09-10T16:43:48.642Z,1015.10
2018-09-10T16:48:44.344Z,1015.15
2018-09-10T16:53:40.121Z,1015.16
2018-09-10T16:58:36.429Z,1015.23
2018-09-10T17:03:33.442Z,1015.25
2018-09-10T17:08:28.698Z,1015.29
2018-09-10T17:13:24.929Z,1015.39
2018-09-10T17:18:21.283Z,1015.44
2018-09-10T17:23:18.068Z,1015.47
2018-09-10T17:28:13.400Z,1015.55
2018-09-10T17:33:09.215Z,1015.54
2018-09-10T17:38:04.905Z,1015.47
2018-09-10T17:43:00.983Z,1015.45
2018-09-10T17:47:58.173Z,1015.62
2018-09-10T17:52:54.238Z,1015.65
2018-09-10T17:57:50.336Z,1015.67
2018-09-10T18:02:46.942Z,1015.65
2018-09-10T18:07:42.591Z,1015.52
2018-09-10T18:12:39.358Z,1015.50
2018-09-10T18:17:36.405Z,1015.36
2018-09-10T18:22:31.988Z,1015.48
2018-09-10T18:27:27.929Z,1015.42
2018-09-10T18:32:23.410Z,1015.31
2018-09-10T18:37:19.729Z,1015.33
2018-09-10T18:42:15.408Z,1015.25
2018-09-10T18:47:11.109Z,1015.32
2018-09-10T18:52:06.850Z,1015.35
2018-09-10T18:57:02.699Z,1015.40
2018-09-10T19:01:59.589Z,1015.37
2018-09-10T19:06:55.608Z,1015.26
2018-09-10T19:11:50.925Z,1015.33
2018-09-10T19:16:46.781Z,1015.37
2018-09-10T19:21:43.796Z,1015.23
2018-09-10T19:26:40.123Z,1015.24
2018-09-10T19:31:36.500Z,1015.23
2018-09-10T19:36:32.686Z,1015.24
2018-09-10T19:41:28.150Z,1015.03
2018-09-10T19:46:25.363Z,1015.25
2018-09-10T19:51:21.530Z,1015.25
2018-09-10T19:56:17.484Z,1015.09
2018-09-10T20:01:13.110Z,1015.03
2018-09-10T20:06:08.726Z,1015.12
2018-09-10T20:11:06.098Z,1015.02
2018-09-10T20:16:02.557Z,1015.14
2018-09-10T20:20:58.462Z,1015.20
2018-09-10T20:25:54.135Z,1015.26
2018-09-10T20:30:50.390Z,1015.26
2018-09-10T20:35:47.396Z,1015.19
2018-09-10T20:40:43.647Z,1015.15
2018-09-10T20:45:39.495Z,1015.22
2018-09-10T20:50:35.153Z,1014.94
2018-09-10T20:55:30.572Z,1015.07
2018-09-10T21:00:26.735Z,1015.05
2018-09-10T21:10:23.534Z,1015.07
2018-09-10T21:15:19.435Z,1015.10
2018-09-10T21:20:15.336Z,1015.03
2018-09-10T21:25:11.174Z,1015.18
2018-09-10T21:30:06.796Z,1015.17
2018-09-10T21:35:02.726Z,1015.03
2018-09-10T21:39:59.963Z,1015.05
2018-09-10T21:44:55.252Z,1014.98
2018-09-10T21:49:51.505Z,1014.89
2018-09-10T21:54:47.326Z,1014.88
2018-09-10T21:59:43.775Z,1014.86
2018-09-10T22:04:39.559Z,1014.86
2018-09-10T22:09:36.259Z,1015.04
2018-09-10T22:14:32.550Z,1015.07
2018-09-10T22:19:28.283Z,1015.09
2018-09-10T22:24:25.154Z,1015.18
2018-09-10T22:29:20.711Z,1015.17
2018-09-10T22:34:16.392Z,1015.32
2018-09-10T22:39:12.183Z,1015.23
2018-09-10T22:44:07.686Z,1015.18
2018-09-10T22:49:03.239Z,1015.12
2018-09-10T22:53:59.212Z,1015.04
2018-09-10T22:58:55.246Z,1015.22
2018-09-10T23:03:51.250Z,1015.17
2018-09-10T23:08:47.130Z,1015.12
2018-09-10T23:13:44.031Z,1015.12
2018-09-10T23:18:40.108Z,1015.10
2018-09-10T23:23:37.308Z,1015.14
2018-09-10T23:28:33.665Z,1015.12
2018-09-10T23:33:30.098Z,1015.17
2018-09-10T23:38:25.833Z,1015.01
2018-09-10T23:43:21.819Z,1015.10
2018-09-10T23:48:17.682Z,1015.03
2018-09-10T23:53:13.715Z,1014.97
2018-09-10T23:58:09.411Z,1014.91
